sensor_id;sensor_type;location;lat;lon;timestamp;temperature;humidity
24682;DHT22;12802;53.390;-2.328;2023-09-18T00:00:48;17.00;99.90
24682;DHT22;12802;53.390;-2.328;2023-09-18T00:03:18;17.00;99.90
24682;DHT22;12802;53.390;-2.328;2023-09-18T00:05:46;17.00;99.90
24682;DHT22;12802;53.390;-2.328;2023-09-18T00:08:13;17.00;99.90
24682;DHT22;12802;53.390;-2.328;2023-09-18T00:10:39;17.00;99.90
24682;DHT22;12802;53.390;-2.328;2023-09-18T00:13:05;17.00;99.90
24682;DHT22;12802;53.390;-2.328;2023-09-18T00:15:31;17.00;99.90
24682;DHT22;12802;53.390;-2.328;2023-09-18T00:17:57;17.00;99.90
24682;DHT22;12802;53.390;-2.328;2023-09-18T00:20:22;17.00;99.90
24682;DHT22;12802;53.390;-2.328;2023-09-18T00:22:55;17.00;99.90
24682;DHT22;12802;53.390;-2.328;2023-09-18T00:25:22;17.00;99.90
24682;DHT22;12802;53.390;-2.328;2023-09-18T00:27:48;17.00;99.90
24682;DHT22;12802;53.390;-2.328;2023-09-18T00:30:14;17.00;99.90
24682;DHT22;12802;53.390;-2.328;2023-09-18T00:32:40;17.00;99.90
24682;DHT22;12802;53.390;-2.328;2023-09-18T00:35:06;17.00;99.90
24682;DHT22;12802;53.390;-2.328;2023-09-18T00:37:32;17.00;99.90
24682;DHT22;12802;53.390;-2.328;2023-09-18T00:39:58;17.00;99.90
24682;DHT22;12802;53.390;-2.328;2023-09-18T00:42:24;16.90;99.90
24682;DHT22;12802;53.390;-2.328;2023-09-18T00:44:50;16.90;99.90
24682;DHT22;12802;53.390;-2.328;2023-09-18T00:47:16;16.90;99.90
24682;DHT22;12802;53.390;-2.328;2023-09-18T00:49:46;16.90;99.90
24682;DHT22;12802;53.390;-2.328;2023-09-18T00:52:13;16.90;99.90
24682;DHT22;12802;53.390;-2.328;2023-09-18T00:54:40;16.90;99.90
24682;DHT22;12802;53.390;-2.328;2023-09-18T00:57:09;16.80;99.90
24682;DHT22;12802;53.390;-2.328;2023-09-18T00:59:36;16.80;99.90
24682;DHT22;12802;53.390;-2.328;2023-09-18T01:02:02;16.80;99.90
24682;DHT22;12802;53.390;-2.328;2023-09-18T01:04:30;16.80;99.90
24682;DHT22;12802;53.390;-2.328;2023-09-18T01:06:59;16.90;99.90
24682;DHT22;12802;53.390;-2.328;2023-09-18T01:09:26;16.80;99.90
24682;DHT22;12802;53.390;-2.328;2023-09-18T01:12:19;16.80;99.90
24682;DHT22;12802;53.390;-2.328;2023-09-18T01:15:07;16.80;99.90
24682;DHT22;12802;53.390;-2.328;2023-09-18T01:17:36;16.80;99.90
24682;DHT22;12802;53.390;-2.328;2023-09-18T01:20:04;16.80;99.90
24682;DHT22;12802;53.390;-2.328;2023-09-18T01:22:31;16.80;99.90
24682;DHT22;12802;53.390;-2.328;2023-09-18T01:24:57;16.90;99.90
24682;DHT22;12802;53.390;-2.328;2023-09-18T01:27:24;16.90;99.90
24682;DHT22;12802;53.390;-2.328;2023-09-18T01:29:50;16.90;99.90
24682;DHT22;12802;53.390;-2.328;2023-09-18T01:32:17;16.90;99.90
24682;DHT22;12802;53.390;-2.328;2023-09-18T01:34:47;16.90;99.90
24682;DHT22;12802;53.390;-2.328;2023-09-18T01:37:16;16.90;99.90
24682;DHT22;12802;53.390;-2.328;2023-09-18T01:39:45;16.90;99.90
24682;DHT22;12802;53.390;-2.328;2023-09-18T01:42:11;16.90;99.90
24682;DHT22;12802;53.390;-2.328;2023-09-18T01:44:37;17.00;99.90
24682;DHT22;12802;53.390;-2.328;2023-09-18T01:47:08;16.90;99.90
24682;DHT22;12802;53.390;-2.328;2023-09-18T01:49:38;16.90;99.90
24682;DHT22;12802;53.390;-2.328;2023-09-18T01:52:05;16.80;99.90
24682;DHT22;12802;53.390;-2.328;2023-09-18T01:54:32;16.80;99.90
24682;DHT22;12802;53.390;-2.328;2023-09-18T01:56:58;16.80;99.90
24682;DHT22;12802;53.390;-2.328;2023-09-18T01:59:24;16.80;99.90
24682;DHT22;12802;53.390;-2.328;2023-09-18T02:01:51;16.80;99.90
24682;DHT22;12802;53.390;-2.328;2023-09-18T02:04:17;16.80;99.90
24682;DHT22;12802;53.390;-2.328;2023-09-18T02:06:45;16.80;99.90
24682;DHT22;12802;53.390;-2.328;2023-09-18T02:09:11;16.70;99.90
24682;DHT22;12802;53.390;-2.328;2023-09-18T02:11:39;16.70;99.90
24682;DHT22;12802;53.390;-2.328;2023-09-18T02:14:07;16.60;99.90
24682;DHT22;12802;53.390;-2.328;2023-09-18T02:16:33;16.60;99.90
24682;DHT22;12802;53.390;-2.328;2023-09-18T02:18:59;16.60;99.90
24682;DHT22;12802;53.390;-2.328;2023-09-18T02:21:25;16.60;99.90
24682;DHT22;12802;53.390;-2.328;2023-09-18T02:23:51;16.50;99.90
24682;DHT22;12802;53.390;-2.328;2023-09-18T02:26:18;16.50;99.90
24682;DHT22;12802;53.390;-2.328;2023-09-18T02:28:45;16.50;99.90
24682;DHT22;12802;53.390;-2.328;2023-09-18T02:31:13;16.40;99.90
24682;DHT22;12802;53.390;-2.328;2023-09-18T02:33:39;16.40;99.90
24682;DHT22;12802;53.390;-2.328;2023-09-18T02:36:05;16.40;99.90
24682;DHT22;12802;53.390;-2.328;2023-09-18T02:38:32;16.40;99.90
24682;DHT22;12802;53.390;-2.328;2023-09-18T02:40:58;16.40;99.90
24682;DHT22;12802;53.390;-2.328;2023-09-18T02:43:25;16.30;99.90
24682;DHT22;12802;53.390;-2.328;2023-09-18T02:45:51;16.30;99.90
24682;DHT22;12802;53.390;-2.328;2023-09-18T02:48:17;16.30;99.90
24682;DHT22;12802;53.390;-2.328;2023-09-18T02:50:44;16.30;99.90
24682;DHT22;12802;53.390;-2.328;2023-09-18T02:53:21;16.30;99.90
24682;DHT22;12802;53.390;-2.328;2023-09-18T02:55:51;16.30;99.90
24682;DHT22;12802;53.390;-2.328;2023-09-18T02:58:18;16.30;99.90
24682;DHT22;12802;53.390;-2.328;2023-09-18T03:00:49;16.30;99.90
24682;DHT22;12802;53.390;-2.328;2023-09-18T03:03:16;16.30;99.90
24682;DHT22;12802;53.390;-2.328;2023-09-18T03:05:43;16.30;99.90
24682;DHT22;12802;53.390;-2.328;2023-09-18T03:08:10;16.30;99.90
24682;DHT22;12802;53.390;-2.328;2023-09-18T03:10:40;16.30;99.90
24682;DHT22;12802;53.390;-2.328;2023-09-18T03:13:08;16.30;99.90
24682;DHT22;12802;53.390;-2.328;2023-09-18T03:15:34;16.30;99.90
24682;DHT22;12802;53.390;-2.328;2023-09-18T03:18:01;16.30;99.90
24682;DHT22;12802;53.390;-2.328;2023-09-18T03:20:28;16.30;99.90
24682;DHT22;12802;53.390;-2.328;2023-09-18T03:22:57;16.30;99.90
24682;DHT22;12802;53.390;-2.328;2023-09-18T03:25:23;16.30;99.90
24682;DHT22;12802;53.390;-2.328;2023-09-18T03:27:51;16.30;99.90
24682;DHT22;12802;53.390;-2.328;2023-09-18T03:30:18;16.30;99.90
24682;DHT22;12802;53.390;-2.328;2023-09-18T03:32:44;16.30;99.90
24682;DHT22;12802;53.390;-2.328;2023-09-18T03:35:12;16.20;99.90
24682;DHT22;12802;53.390;-2.328;2023-09-18T03:37:45;16.30;99.90
24682;DHT22;12802;53.390;-2.328;2023-09-18T03:40:12;16.20;99.90
24682;DHT22;12802;53.390;-2.328;2023-09-18T03:42:37;16.20;99.90
24682;DHT22;12802;53.390;-2.328;2023-09-18T03:45:06;16.20;99.90
24682;DHT22;12802;53.390;-2.328;2023-09-18T03:47:33;16.20;99.90
24682;DHT22;12802;53.390;-2.328;2023-09-18T03:49:59;16.20;99.90
24682;DHT22;12802;53.390;-2.328;2023-09-18T03:52:25;16.20;99.90
24682;DHT22;12802;53.390;-2.328;2023-09-18T03:54:51;16.20;99.90
24682;DHT22;12802;53.390;-2.328;2023-09-18T03:57:16;16.20;99.90
24682;DHT22;12802;53.390;-2.328;2023-09-18T03:59:42;16.20;99.90
24682;DHT22;12802;53.390;-2.328;2023-09-18T04:02:08;16.20;99.90
24682;DHT22;12802;53.390;-2.328;2023-09-18T04:04:34;16.20;99.90
24682;DHT22;12802;53.390;-2.328;2023-09-18T04:06:59;16.10;99.90
24682;DHT22;12802;53.390;-2.328;2023-09-18T04:09:25;16.10;99.90
24682;DHT22;12802;53.390;-2.328;2023-09-18T04:11:51;16.10;99.90
24682;DHT22;12802;53.390;-2.328;2023-09-18T04:14:17;16.10;99.90
24682;DHT22;12802;53.390;-2.328;2023-09-18T04:16:43;16.10;99.90
24682;DHT22;12802;53.390;-2.328;2023-09-18T04:19:09;16.10;99.90
24682;DHT22;12802;53.390;-2.328;2023-09-18T04:21:35;16.10;99.90
24682;DHT22;12802;53.390;-2.328;2023-09-18T04:24:01;16.10;99.90
24682;DHT22;12802;53.390;-2.328;2023-09-18T04:26:28;16.10;99.90
24682;DHT22;12802;53.390;-2.328;2023-09-18T04:28:58;16.10;99.90
24682;DHT22;12802;53.390;-2.328;2023-09-18T04:31:24;16.10;99.90
24682;DHT22;12802;53.390;-2.328;2023-09-18T04:33:50;16.10;99.90
24682;DHT22;12802;53.390;-2.328;2023-09-18T04:36:16;16.10;99.90
24682;DHT22;12802;53.390;-2.328;2023-09-18T04:38:41;16.10;99.90
24682;DHT22;12802;53.390;-2.328;2023-09-18T04:41:08;16.10;99.90
24682;DHT22;12802;53.390;-2.328;2023-09-18T04:43:36;16.10;99.90
24682;DHT22;12802;53.390;-2.328;2023-09-18T04:46:04;16.10;99.90
24682;DHT22;12802;53.390;-2.328;2023-09-18T04:48:31;16.00;99.90
24682;DHT22;12802;53.390;-2.328;2023-09-18T04:50:58;16.10;99.90
24682;DHT22;12802;53.390;-2.328;2023-09-18T04:53:25;16.10;99.90
24682;DHT22;12802;53.390;-2.328;2023-09-18T04:55:51;16.10;99.90
24682;DHT22;12802;53.390;-2.328;2023-09-18T04:58:17;16.10;99.90
24682;DHT22;12802;53.390;-2.328;2023-09-18T05:00:43;16.10;99.90
24682;DHT22;12802;53.390;-2.328;2023-09-18T05:03:09;16.10;99.90
24682;DHT22;12802;53.390;-2.328;2023-09-18T05:05:36;16.10;99.90
24682;DHT22;12802;53.390;-2.328;2023-09-18T05:08:05;16.10;99.90
24682;DHT22;12802;53.390;-2.328;2023-09-18T05:10:36;16.10;99.90
24682;DHT22;12802;53.390;-2.328;2023-09-18T05:13:03;16.00;99.90
24682;DHT22;12802;53.390;-2.328;2023-09-18T05:15:29;16.00;99.90
24682;DHT22;12802;53.390;-2.328;2023-09-18T05:17:56;16.00;99.90
24682;DHT22;12802;53.390;-2.328;2023-09-18T05:20:24;16.00;99.90
24682;DHT22;12802;53.390;-2.328;2023-09-18T05:22:51;16.00;99.90
24682;DHT22;12802;53.390;-2.328;2023-09-18T05:25:21;16.00;99.90
24682;DHT22;12802;53.390;-2.328;2023-09-18T05:28:00;16.00;99.90
24682;DHT22;12802;53.390;-2.328;2023-09-18T05:30:28;15.90;99.90
24682;DHT22;12802;53.390;-2.328;2023-09-18T05:32:58;15.90;99.90
24682;DHT22;12802;53.390;-2.328;2023-09-18T05:35:34;15.90;99.90
24682;DHT22;12802;53.390;-2.328;2023-09-18T05:38:05;15.90;99.90
24682;DHT22;12802;53.390;-2.328;2023-09-18T05:40:31;15.90;99.90
24682;DHT22;12802;53.390;-2.328;2023-09-18T05:42:57;15.80;99.90
24682;DHT22;12802;53.390;-2.328;2023-09-18T05:45:23;15.90;99.90
24682;DHT22;12802;53.390;-2.328;2023-09-18T05:47:50;15.80;99.90
24682;DHT22;12802;53.390;-2.328;2023-09-18T05:50:16;15.70;99.90
24682;DHT22;12802;53.390;-2.328;2023-09-18T05:52:47;15.70;99.90
24682;DHT22;12802;53.390;-2.328;2023-09-18T05:55:14;15.70;99.90
24682;DHT22;12802;53.390;-2.328;2023-09-18T05:57:40;15.70;99.90
24682;DHT22;12802;53.390;-2.328;2023-09-18T06:00:07;15.70;99.90
24682;DHT22;12802;53.390;-2.328;2023-09-18T06:02:39;15.70;99.90
24682;DHT22;12802;53.390;-2.328;2023-09-18T06:05:05;15.60;99.90
24682;DHT22;12802;53.390;-2.328;2023-09-18T06:07:32;15.60;99.90
24682;DHT22;12802;53.390;-2.328;2023-09-18T06:09:58;15.60;99.90
24682;DHT22;12802;53.390;-2.328;2023-09-18T06:12:24;15.50;99.90
24682;DHT22;12802;53.390;-2.328;2023-09-18T06:14:51;15.50;99.90
24682;DHT22;12802;53.390;-2.328;2023-09-18T06:17:17;15.50;99.90
24682;DHT22;12802;53.390;-2.328;2023-09-18T06:19:43;15.50;99.90
24682;DHT22;12802;53.390;-2.328;2023-09-18T06:22:09;15.40;99.90
24682;DHT22;12802;53.390;-2.328;2023-09-18T06:24:35;15.40;99.90
24682;DHT22;12802;53.390;-2.328;2023-09-18T06:27:02;15.40;99.90
24682;DHT22;12802;53.390;-2.328;2023-09-18T06:29:30;15.30;99.90
24682;DHT22;12802;53.390;-2.328;2023-09-18T06:31:56;15.30;99.90
24682;DHT22;12802;53.390;-2.328;2023-09-18T06:34:22;15.20;99.90
24682;DHT22;12802;53.390;-2.328;2023-09-18T06:36:47;15.20;99.90
24682;DHT22;12802;53.390;-2.328;2023-09-18T06:39:13;15.20;99.90
24682;DHT22;12802;53.390;-2.328;2023-09-18T06:41:39;15.20;99.90
24682;DHT22;12802;53.390;-2.328;2023-09-18T06:44:05;15.20;99.90
24682;DHT22;12802;53.390;-2.328;2023-09-18T06:46:31;15.20;99.90
24682;DHT22;12802;53.390;-2.328;2023-09-18T06:48:57;15.20;99.90
24682;DHT22;12802;53.390;-2.328;2023-09-18T06:51:25;15.20;99.90
24682;DHT22;12802;53.390;-2.328;2023-09-18T06:53:51;15.20;99.90
24682;DHT22;12802;53.390;-2.328;2023-09-18T06:56:17;15.10;99.90
24682;DHT22;12802;53.390;-2.328;2023-09-18T06:58:43;15.10;99.90
24682;DHT22;12802;53.390;-2.328;2023-09-18T07:01:09;15.10;99.90
24682;DHT22;12802;53.390;-2.328;2023-09-18T07:03:35;15.10;99.90
24682;DHT22;12802;53.390;-2.328;2023-09-18T07:06:02;15.10;99.90
24682;DHT22;12802;53.390;-2.328;2023-09-18T07:08:30;15.10;99.90
24682;DHT22;12802;53.390;-2.328;2023-09-18T07:10:56;15.10;99.90
24682;DHT22;12802;53.390;-2.328;2023-09-18T07:13:22;15.10;99.90
24682;DHT22;12802;53.390;-2.328;2023-09-18T07:15:48;15.10;99.90
24682;DHT22;12802;53.390;-2.328;2023-09-18T07:18:14;15.20;99.90
24682;DHT22;12802;53.390;-2.328;2023-09-18T07:20:48;15.20;99.90
24682;DHT22;12802;53.390;-2.328;2023-09-18T07:23:14;15.20;99.90
24682;DHT22;12802;53.390;-2.328;2023-09-18T07:25:40;15.30;99.90
24682;DHT22;12802;53.390;-2.328;2023-09-18T07:28:09;15.30;99.90
24682;DHT22;12802;53.390;-2.328;2023-09-18T07:30:38;15.30;99.90
24682;DHT22;12802;53.390;-2.328;2023-09-18T07:33:04;15.30;99.90
24682;DHT22;12802;53.390;-2.328;2023-09-18T07:35:30;15.40;99.90
24682;DHT22;12802;53.390;-2.328;2023-09-18T07:37:56;15.40;99.90
24682;DHT22;12802;53.390;-2.328;2023-09-18T07:40:22;15.50;99.90
24682;DHT22;12802;53.390;-2.328;2023-09-18T07:45:14;15.50;99.90
24682;DHT22;12802;53.390;-2.328;2023-09-18T07:47:40;15.60;99.90
24682;DHT22;12802;53.390;-2.328;2023-09-18T07:50:06;15.50;99.90
24682;DHT22;12802;53.390;-2.328;2023-09-18T07:52:32;15.60;99.90
24682;DHT22;12802;53.390;-2.328;2023-09-18T07:54:58;15.60;99.90
24682;DHT22;12802;53.390;-2.328;2023-09-18T07:57:25;15.70;99.90
24682;DHT22;12802;53.390;-2.328;2023-09-18T07:59:53;15.70;99.90
24682;DHT22;12802;53.390;-2.328;2023-09-18T08:02:19;15.70;99.90
24682;DHT22;12802;53.390;-2.328;2023-09-18T08:04:47;15.70;99.90
24682;DHT22;12802;53.390;-2.328;2023-09-18T08:07:13;15.80;99.90
24682;DHT22;12802;53.390;-2.328;2023-09-18T08:09:38;15.80;99.90
24682;DHT22;12802;53.390;-2.328;2023-09-18T08:14:36;16.00;99.90
24682;DHT22;12802;53.390;-2.328;2023-09-18T08:17:03;16.00;99.90
24682;DHT22;12802;53.390;-2.328;2023-09-18T08:19:30;16.10;99.90
24682;DHT22;12802;53.390;-2.328;2023-09-18T08:21:58;16.10;99.90
24682;DHT22;12802;53.390;-2.328;2023-09-18T08:24:25;16.20;99.90
24682;DHT22;12802;53.390;-2.328;2023-09-18T08:26:51;16.30;99.90
24682;DHT22;12802;53.390;-2.328;2023-09-18T08:29:17;16.30;99.90
24682;DHT22;12802;53.390;-2.328;2023-09-18T08:31:43;16.40;99.90
24682;DHT22;12802;53.390;-2.328;2023-09-18T08:34:09;16.40;99.90
24682;DHT22;12802;53.390;-2.328;2023-09-18T08:36:35;16.40;99.90
24682;DHT22;12802;53.390;-2.328;2023-09-18T08:39:01;16.40;99.90
24682;DHT22;12802;53.390;-2.328;2023-09-18T08:41:28;16.40;99.90
24682;DHT22;12802;53.390;-2.328;2023-09-18T08:44:00;16.30;99.90
24682;DHT22;12802;53.390;-2.328;2023-09-18T08:46:27;16.30;99.90
24682;DHT22;12802;53.390;-2.328;2023-09-18T08:48:53;16.30;99.90
24682;DHT22;12802;53.390;-2.328;2023-09-18T08:51:19;16.20;99.90
24682;DHT22;12802;53.390;-2.328;2023-09-18T08:53:46;16.20;99.90
24682;DHT22;12802;53.390;-2.328;2023-09-18T08:56:13;16.10;99.90
24682;DHT22;12802;53.390;-2.328;2023-09-18T08:58:40;16.00;99.90
24682;DHT22;12802;53.390;-2.328;2023-09-18T09:01:11;16.00;99.90
24682;DHT22;12802;53.390;-2.328;2023-09-18T09:03:38;15.90;99.90
24682;DHT22;12802;53.390;-2.328;2023-09-18T09:06:05;15.90;99.90
24682;DHT22;12802;53.390;-2.328;2023-09-18T09:08:31;15.90;99.90
24682;DHT22;12802;53.390;-2.328;2023-09-18T09:10:57;15.90;99.90
24682;DHT22;12802;53.390;-2.328;2023-09-18T09:13:26;15.80;99.90
24682;DHT22;12802;53.390;-2.328;2023-09-18T09:15:57;15.80;99.90
24682;DHT22;12802;53.390;-2.328;2023-09-18T09:18:23;15.80;99.90
24682;DHT22;12802;53.390;-2.328;2023-09-18T09:21:00;15.70;99.90
24682;DHT22;12802;53.390;-2.328;2023-09-18T09:23:28;15.70;99.90
24682;DHT22;12802;53.390;-2.328;2023-09-18T09:26:12;15.70;99.90
24682;DHT22;12802;53.390;-2.328;2023-09-18T09:28:38;15.60;99.90
24682;DHT22;12802;53.390;-2.328;2023-09-18T09:31:04;15.60;99.90
24682;DHT22;12802;53.390;-2.328;2023-09-18T09:33:31;15.60;99.90
24682;DHT22;12802;53.390;-2.328;2023-09-18T09:35:57;15.50;99.90
24682;DHT22;12802;53.390;-2.328;2023-09-18T09:38:33;15.40;99.90
24682;DHT22;12802;53.390;-2.328;2023-09-18T09:41:00;15.40;99.90
24682;DHT22;12802;53.390;-2.328;2023-09-18T09:43:31;15.30;99.90
24682;DHT22;12802;53.390;-2.328;2023-09-18T09:45:59;15.20;99.90
24682;DHT22;12802;53.390;-2.328;2023-09-18T09:48:26;15.20;99.90
24682;DHT22;12802;53.390;-2.328;2023-09-18T09:50:52;15.10;99.90
24682;DHT22;12802;53.390;-2.328;2023-09-18T09:53:42;15.00;99.90
24682;DHT22;12802;53.390;-2.328;2023-09-18T09:56:08;14.90;99.90
24682;DHT22;12802;53.390;-2.328;2023-09-18T09:58:34;14.80;99.90
24682;DHT22;12802;53.390;-2.328;2023-09-18T10:01:03;14.70;99.90
24682;DHT22;12802;53.390;-2.328;2023-09-18T10:03:35;14.60;99.90
24682;DHT22;12802;53.390;-2.328;2023-09-18T10:06:04;14.50;99.90
24682;DHT22;12802;53.390;-2.328;2023-09-18T10:08:31;14.40;99.90
24682;DHT22;12802;53.390;-2.328;2023-09-18T10:11:09;14.30;99.90
24682;DHT22;12802;53.390;-2.328;2023-09-18T10:13:47;14.30;99.90
24682;DHT22;12802;53.390;-2.328;2023-09-18T10:16:17;14.10;99.90
24682;DHT22;12802;53.390;-2.328;2023-09-18T10:21:35;14.10;99.90
24682;DHT22;12802;53.390;-2.328;2023-09-18T10:24:17;14.10;99.90
24682;DHT22;12802;53.390;-2.328;2023-09-18T10:26:57;14.10;99.90
24682;DHT22;12802;53.390;-2.328;2023-09-18T10:29:29;13.90;99.90
24682;DHT22;12802;53.390;-2.328;2023-09-18T10:31:55;13.80;99.90
24682;DHT22;12802;53.390;-2.328;2023-09-18T10:34:23;13.70;99.90
24682;DHT22;12802;53.390;-2.328;2023-09-18T10:36:53;13.70;99.90
24682;DHT22;12802;53.390;-2.328;2023-09-18T10:39:20;13.60;99.90
24682;DHT22;12802;53.390;-2.328;2023-09-18T10:41:53;13.60;99.90
24682;DHT22;12802;53.390;-2.328;2023-09-18T10:44:20;13.60;99.90
24682;DHT22;12802;53.390;-2.328;2023-09-18T10:46:47;13.60;99.90
24682;DHT22;12802;53.390;-2.328;2023-09-18T10:49:17;13.70;99.90
24682;DHT22;12802;53.390;-2.328;2023-09-18T10:51:43;13.60;99.90
24682;DHT22;12802;53.390;-2.328;2023-09-18T10:54:19;13.60;99.90
24682;DHT22;12802;53.390;-2.328;2023-09-18T10:56:46;13.60;99.90
24682;DHT22;12802;53.390;-2.328;2023-09-18T10:59:14;13.60;99.90
24682;DHT22;12802;53.390;-2.328;2023-09-18T11:01:42;13.60;99.90
24682;DHT22;12802;53.390;-2.328;2023-09-18T11:04:08;13.60;99.90
24682;DHT22;12802;53.390;-2.328;2023-09-18T11:09:24;13.70;99.90
24682;DHT22;12802;53.390;-2.328;2023-09-18T11:12:09;13.80;99.90
24682;DHT22;12802;53.390;-2.328;2023-09-18T11:14:56;13.80;99.90
24682;DHT22;12802;53.390;-2.328;2023-09-18T11:17:35;14.00;99.90
24682;DHT22;12802;53.390;-2.328;2023-09-18T11:22:39;14.20;99.90
24682;DHT22;12802;53.390;-2.328;2023-09-18T11:27:56;14.40;99.90
24682;DHT22;12802;53.390;-2.328;2023-09-18T11:30:22;14.50;99.90
24682;DHT22;12802;53.390;-2.328;2023-09-18T11:32:52;14.60;99.90
24682;DHT22;12802;53.390;-2.328;2023-09-18T11:35:19;14.50;99.90
24682;DHT22;12802;53.390;-2.328;2023-09-18T11:38:03;14.70;99.90
24682;DHT22;12802;53.390;-2.328;2023-09-18T11:40:32;14.90;99.90
24682;DHT22;12802;53.390;-2.328;2023-09-18T11:43:28;15.10;99.90
24682;DHT22;12802;53.390;-2.328;2023-09-18T11:45:58;15.00;99.90
24682;DHT22;12802;53.390;-2.328;2023-09-18T11:48:26;14.90;99.90
24682;DHT22;12802;53.390;-2.328;2023-09-18T11:50:58;14.80;99.90
24682;DHT22;12802;53.390;-2.328;2023-09-18T11:53:26;14.80;99.90
24682;DHT22;12802;53.390;-2.328;2023-09-18T11:55:52;14.60;99.90
24682;DHT22;12802;53.390;-2.328;2023-09-18T11:58:18;14.60;99.90
24682;DHT22;12802;53.390;-2.328;2023-09-18T12:00:49;14.50;99.90
24682;DHT22;12802;53.390;-2.328;2023-09-18T12:03:19;14.50;99.90
24682;DHT22;12802;53.390;-2.328;2023-09-18T12:05:55;14.40;99.90
24682;DHT22;12802;53.390;-2.328;2023-09-18T12:08:22;14.30;99.90
24682;DHT22;12802;53.390;-2.328;2023-09-18T12:10:49;14.40;99.90
24682;DHT22;12802;53.390;-2.328;2023-09-18T12:13:15;14.40;99.90
24682;DHT22;12802;53.390;-2.328;2023-09-18T12:15:41;14.40;99.90
24682;DHT22;12802;53.390;-2.328;2023-09-18T12:18:11;14.40;99.90
24682;DHT22;12802;53.390;-2.328;2023-09-18T12:20:49;14.30;99.90
24682;DHT22;12802;53.390;-2.328;2023-09-18T12:23:17;14.20;99.90
24682;DHT22;12802;53.390;-2.328;2023-09-18T12:25:49;14.20;99.90
24682;DHT22;12802;53.390;-2.328;2023-09-18T12:28:17;14.20;99.90
24682;DHT22;12802;53.390;-2.328;2023-09-18T12:30:46;14.10;99.90
24682;DHT22;12802;53.390;-2.328;2023-09-18T12:33:12;14.20;99.90
24682;DHT22;12802;53.390;-2.328;2023-09-18T12:35:40;14.30;99.90
24682;DHT22;12802;53.390;-2.328;2023-09-18T12:38:17;14.40;99.90
24682;DHT22;12802;53.390;-2.328;2023-09-18T12:40:45;14.50;99.90
24682;DHT22;12802;53.390;-2.328;2023-09-18T12:43:13;14.60;99.90
24682;DHT22;12802;53.390;-2.328;2023-09-18T12:45:41;14.50;99.90
24682;DHT22;12802;53.390;-2.328;2023-09-18T12:48:08;14.60;99.90
24682;DHT22;12802;53.390;-2.328;2023-09-18T12:50:34;14.60;99.90
24682;DHT22;12802;53.390;-2.328;2023-09-18T12:53:08;14.60;99.90
24682;DHT22;12802;53.390;-2.328;2023-09-18T12:55:34;14.70;99.90
24682;DHT22;12802;53.390;-2.328;2023-09-18T12:58:01;14.70;99.90
24682;DHT22;12802;53.390;-2.328;2023-09-18T13:00:31;14.80;99.90
24682;DHT22;12802;53.390;-2.328;2023-09-18T13:02:57;14.80;99.90
24682;DHT22;12802;53.390;-2.328;2023-09-18T13:05:23;14.70;99.90
24682;DHT22;12802;53.390;-2.328;2023-09-18T13:07:51;14.40;99.90
24682;DHT22;12802;53.390;-2.328;2023-09-18T13:10:18;14.40;99.90
24682;DHT22;12802;53.390;-2.328;2023-09-18T13:12:49;14.40;99.90
24682;DHT22;12802;53.390;-2.328;2023-09-18T13:15:29;14.40;99.90
24682;DHT22;12802;53.390;-2.328;2023-09-18T13:17:56;14.40;99.90
24682;DHT22;12802;53.390;-2.328;2023-09-18T13:20:27;14.40;99.90
24682;DHT22;12802;53.390;-2.328;2023-09-18T13:23:00;14.40;99.90
24682;DHT22;12802;53.390;-2.328;2023-09-18T13:25:30;14.30;99.90
24682;DHT22;12802;53.390;-2.328;2023-09-18T13:28:00;14.30;99.90
24682;DHT22;12802;53.390;-2.328;2023-09-18T13:30:26;14.40;99.90
24682;DHT22;12802;53.390;-2.328;2023-09-18T13:33:02;14.40;99.90
24682;DHT22;12802;53.390;-2.328;2023-09-18T13:35:33;14.50;99.90
24682;DHT22;12802;53.390;-2.328;2023-09-18T13:37:59;14.40;99.90
24682;DHT22;12802;53.390;-2.328;2023-09-18T13:40:25;14.40;99.90
24682;DHT22;12802;53.390;-2.328;2023-09-18T13:42:51;14.20;99.90
24682;DHT22;12802;53.390;-2.328;2023-09-18T13:45:17;14.30;99.90
24682;DHT22;12802;53.390;-2.328;2023-09-18T13:47:43;14.20;99.90
24682;DHT22;12802;53.390;-2.328;2023-09-18T13:50:09;14.20;99.90
24682;DHT22;12802;53.390;-2.328;2023-09-18T13:52:36;14.30;99.90
24682;DHT22;12802;53.390;-2.328;2023-09-18T13:55:03;14.50;99.90
24682;DHT22;12802;53.390;-2.328;2023-09-18T13:57:31;14.60;99.90
24682;DHT22;12802;53.390;-2.328;2023-09-18T13:59:57;14.50;99.90
24682;DHT22;12802;53.390;-2.328;2023-09-18T14:02:23;14.50;99.90
24682;DHT22;12802;53.390;-2.328;2023-09-18T14:04:53;14.60;99.90
24682;DHT22;12802;53.390;-2.328;2023-09-18T14:07:18;14.50;99.90
24682;DHT22;12802;53.390;-2.328;2023-09-18T14:09:44;14.60;99.90
24682;DHT22;12802;53.390;-2.328;2023-09-18T14:12:12;14.70;99.90
24682;DHT22;12802;53.390;-2.328;2023-09-18T14:14:38;14.70;99.90
24682;DHT22;12802;53.390;-2.328;2023-09-18T14:17:06;14.70;99.90
24682;DHT22;12802;53.390;-2.328;2023-09-18T14:19:31;14.60;99.90
24682;DHT22;12802;53.390;-2.328;2023-09-18T14:21:57;14.60;99.90
24682;DHT22;12802;53.390;-2.328;2023-09-18T14:24:27;14.70;99.90
24682;DHT22;12802;53.390;-2.328;2023-09-18T14:26:53;14.80;99.90
24682;DHT22;12802;53.390;-2.328;2023-09-18T14:29:20;14.80;99.90
24682;DHT22;12802;53.390;-2.328;2023-09-18T14:31:46;14.90;99.90
24682;DHT22;12802;53.390;-2.328;2023-09-18T14:34:12;14.90;99.90
24682;DHT22;12802;53.390;-2.328;2023-09-18T14:36:38;14.90;99.90
24682;DHT22;12802;53.390;-2.328;2023-09-18T14:39:09;14.90;99.90
24682;DHT22;12802;53.390;-2.328;2023-09-18T14:41:36;15.00;99.90
24682;DHT22;12802;53.390;-2.328;2023-09-18T14:44:05;15.20;99.90
24682;DHT22;12802;53.390;-2.328;2023-09-18T14:46:31;15.20;99.90
24682;DHT22;12802;53.390;-2.328;2023-09-18T14:49:09;15.30;99.90
24682;DHT22;12802;53.390;-2.328;2023-09-18T14:51:35;15.40;99.90
24682;DHT22;12802;53.390;-2.328;2023-09-18T14:54:01;15.50;99.90
24682;DHT22;12802;53.390;-2.328;2023-09-18T14:56:30;15.50;99.90
24682;DHT22;12802;53.390;-2.328;2023-09-18T14:58:56;15.60;99.90
24682;DHT22;12802;53.390;-2.328;2023-09-18T15:01:22;15.50;99.90
24682;DHT22;12802;53.390;-2.328;2023-09-18T15:03:48;15.40;99.90
24682;DHT22;12802;53.390;-2.328;2023-09-18T15:06:17;15.40;99.90
24682;DHT22;12802;53.390;-2.328;2023-09-18T15:08:43;15.50;99.90
24682;DHT22;12802;53.390;-2.328;2023-09-18T15:11:10;15.70;99.90
24682;DHT22;12802;53.390;-2.328;2023-09-18T15:13:36;16.00;99.90
24682;DHT22;12802;53.390;-2.328;2023-09-18T15:16:02;16.30;99.90
24682;DHT22;12802;53.390;-2.328;2023-09-18T15:18:28;16.20;99.90
24682;DHT22;12802;53.390;-2.328;2023-09-18T15:20:54;16.10;99.90
24682;DHT22;12802;53.390;-2.328;2023-09-18T15:23:23;16.00;99.90
24682;DHT22;12802;53.390;-2.328;2023-09-18T15:25:53;15.80;99.90
24682;DHT22;12802;53.390;-2.328;2023-09-18T15:28:23;15.60;99.90
24682;DHT22;12802;53.390;-2.328;2023-09-18T15:33:18;15.80;99.90
24682;DHT22;12802;53.390;-2.328;2023-09-18T15:35:46;15.70;99.90
24682;DHT22;12802;53.390;-2.328;2023-09-18T15:38:12;15.60;99.90